createdAt,value
2022-09-28T00:02:27.956Z,0.0
2022-09-28T00:04:58.647Z,0.0
2022-09-28T00:07:39.235Z,0.5
2022-09-28T00:10:09.810Z,0.2
2022-09-28T00:12:40.412Z,0.8
2022-09-28T00:22:51.474Z,0.0
2022-09-28T00:27:52.200Z,0.0
2022-09-28T00:30:22.804Z,0.0
2022-09-28T00:32:53.403Z,0.0
2022-09-28T00:35:23.998Z,0.0
2022-09-28T00:38:04.614Z,0.0
2022-09-28T00:40:35.438Z,0.0
2022-09-28T00:43:06.039Z,0.0
2022-09-28T00:45:36.733Z,0.0
2022-09-28T00:48:07.327Z,0.0
2022-09-28T00:50:37.932Z,0.0
2022-09-28T00:53:28.538Z,0.0
2022-09-28T00:55:59.114Z,0.0
2022-09-28T00:58:29.737Z,0.0
2022-09-28T01:01:00.647Z,0.0
2022-09-28T01:03:31.279Z,0.0
2022-09-28T01:08:42.028Z,0.0
2022-09-28T01:11:12.636Z,0.0
2022-09-28T01:13:43.249Z,0.0
2022-09-28T01:16:14.044Z,0.0
2022-09-28T01:18:44.671Z,0.0
2022-09-28T01:21:25.278Z,0.0
2022-09-28T01:23:55.900Z,0.0
2022-09-28T01:26:26.483Z,0.2
2022-09-28T01:28:57.086Z,0.0
2022-09-28T01:31:28.054Z,0.0
2022-09-28T01:33:58.689Z,0.2
2022-09-28T01:36:39.276Z,0.0
2022-09-28T01:39:09.918Z,0.0
2022-09-28T01:41:40.499Z,0.2
2022-09-28T01:44:11.105Z,0.0
2022-09-28T01:49:11.875Z,0.2
2022-09-28T01:51:52.467Z,0.0
2022-09-28T01:54:23.046Z,0.0
2022-09-28T01:56:53.635Z,1.6
2022-09-28T01:59:24.403Z,1.1
2022-09-28T02:01:55.088Z,0.2
2022-09-28T02:04:25.670Z,0.0
2022-09-28T02:07:06.253Z,0.0
2022-09-28T02:09:41.833Z,0.0
2022-09-28T02:12:12.444Z,0.0
2022-09-28T02:14:43.064Z,0.0
2022-09-28T02:17:13.635Z,0.0
2022-09-28T02:19:54.238Z,0.0
2022-09-28T02:22:24.863Z,0.0
2022-09-28T02:24:55.497Z,0.0
2022-09-28T02:29:56.243Z,1.6
2022-09-28T02:32:26.836Z,0.0
2022-09-28T02:35:07.459Z,0.5
2022-09-28T02:37:38.052Z,0.0
2022-09-28T02:40:08.628Z,0.2
2022-09-28T02:42:39.212Z,0.2
2022-09-28T02:45:09.835Z,0.5
2022-09-28T02:47:40.438Z,0.5
2022-09-28T02:50:21.066Z,1.1
2022-09-28T02:52:51.654Z,0.2
2022-09-28T02:55:22.250Z,0.2
2022-09-28T02:57:52.837Z,0.2
2022-09-28T03:00:23.457Z,0.8
2022-09-28T03:02:54.046Z,0.0
2022-09-28T03:05:34.640Z,0.0
2022-09-28T03:10:35.376Z,0.0
2022-09-28T03:13:05.981Z,0.0
2022-09-28T03:15:36.573Z,0.2
2022-09-28T03:18:07.152Z,0.0
2022-09-28T03:20:47.752Z,0.8
2022-09-28T03:23:43.072Z,0.0
2022-09-28T03:25:53.643Z,0.0
2022-09-28T03:30:54.392Z,0.2
2022-09-28T03:33:34.988Z,0.5
2022-09-28T03:36:05.589Z,0.5
2022-09-28T03:38:36.184Z,0.0
2022-09-28T03:41:07.039Z,0.0
2022-09-28T03:43:37.641Z,0.0
2022-09-28T03:46:08.407Z,0.5
2022-09-28T03:53:49.398Z,0.0
2022-09-28T03:56:19.989Z,0.0
2022-09-28T03:58:50.612Z,0.0
2022-09-28T04:01:26.972Z,0.2
2022-09-28T04:03:57.580Z,0.2
2022-09-28T04:06:28.161Z,0.0
2022-09-28T04:08:58.742Z,0.0
2022-09-28T04:11:38.463Z,0.0
2022-09-28T04:14:08.127Z,0.0
2022-09-28T04:16:48.890Z,0.0
2022-09-28T04:19:19.504Z,0.0
2022-09-28T04:21:50.080Z,0.0
2022-09-28T04:24:20.701Z,0.0
2022-09-28T04:26:51.285Z,0.0
2022-09-28T04:32:02.350Z,0.2
2022-09-28T04:34:35.853Z,0.0
2022-09-28T04:36:57.199Z,0.0
2022-09-28T04:39:27.861Z,0.2
2022-09-28T04:41:58.431Z,1.1
2022-09-28T04:44:29.063Z,0.0
2022-09-28T04:47:25.155Z,0.0
2022-09-28T04:49:45.744Z,0.0
2022-09-28T04:52:18.424Z,0.0
2022-09-28T04:54:49.280Z,0.0
2022-09-28T04:57:19.883Z,0.0
2022-09-28T04:59:50.495Z,0.2
2022-09-28T05:02:31.334Z,0.2
2022-09-28T05:05:01.966Z,0.0
2022-09-28T05:07:32.537Z,0.0
2022-09-28T05:12:33.284Z,0.0
2022-09-28T05:15:03.888Z,0.0
2022-09-28T05:17:44.455Z,0.0
2022-09-28T05:20:15.045Z,0.0
2022-09-28T05:22:45.637Z,0.0
2022-09-28T05:25:16.241Z,0.0
2022-09-28T05:27:46.821Z,0.0
2022-09-28T05:30:17.403Z,0.0
2022-09-28T05:32:57.977Z,0.0
2022-09-28T05:35:28.587Z,0.2
2022-09-28T05:37:59.177Z,0.0
2022-09-28T05:40:29.918Z,0.0
2022-09-28T05:43:00.494Z,0.0
2022-09-28T05:45:41.296Z,0.0
2022-09-28T05:53:12.169Z,0.2
2022-09-28T05:55:42.869Z,0.0
2022-09-28T05:58:13.471Z,0.0
2022-09-28T06:00:54.117Z,0.0
2022-09-28T06:03:29.017Z,0.0
2022-09-28T06:05:59.824Z,0.2
2022-09-28T06:08:30.409Z,0.0
2022-09-28T06:11:00.994Z,0.0
2022-09-28T06:13:31.610Z,0.0
2022-09-28T06:16:12.221Z,0.2
2022-09-28T06:18:42.827Z,0.0
2022-09-28T06:21:13.423Z,0.0
2022-09-28T06:23:48.318Z,0.2
2022-09-28T06:26:19.602Z,0.2
2022-09-28T06:29:00.213Z,0.5
2022-09-28T06:34:00.954Z,0.5
2022-09-28T06:36:31.550Z,0.8
2022-09-28T06:39:02.107Z,0.5
2022-09-28T06:41:32.683Z,0.8
2022-09-28T06:44:13.301Z,0.2
2022-09-28T06:46:44.145Z,1.9
2022-09-28T06:49:18.698Z,3.0
2022-09-28T06:51:39.888Z,2.5
2022-09-28T06:54:10.534Z,3.3
2022-09-28T06:56:43.338Z,0.8
2022-09-28T06:59:23.944Z,2.5
2022-09-28T07:01:54.729Z,3.3
2022-09-28T07:04:25.440Z,2.5
2022-09-28T07:06:56.039Z,3.6
2022-09-28T07:09:55.287Z,1.3
2022-09-28T07:14:57.525Z,0.8
2022-09-28T07:17:30.319Z,1.3
2022-09-28T07:19:41.001Z,2.2
2022-09-28T07:22:40.012Z,0.8
2022-09-28T07:24:43.040Z,2.5
2022-09-28T07:29:53.736Z,2.2
2022-09-28T07:32:24.342Z,1.6
2022-09-28T07:34:58.041Z,0.5
2022-09-28T07:37:29.597Z,0.5
2022-09-28T07:40:00.196Z,0.8
2022-09-28T07:42:40.791Z,0.5
2022-09-28T07:45:11.380Z,0.8
2022-09-28T07:47:45.447Z,1.1
2022-09-28T07:50:06.030Z,1.1
2022-09-28T07:55:17.460Z,1.3
2022-09-28T07:57:48.053Z,1.1
2022-09-28T08:00:32.013Z,0.2
2022-09-28T08:02:54.021Z,0.2
2022-09-28T08:05:24.594Z,2.7
2022-09-28T08:07:55.171Z,0.8
2022-09-28T08:10:25.788Z,1.3
2022-09-28T08:13:10.776Z,1.6
2022-09-28T08:15:41.374Z,2.2
2022-09-28T08:18:13.224Z,2.5
2022-09-28T08:20:45.987Z,1.1
2022-09-28T08:23:08.684Z,1.6
2022-09-28T08:25:39.285Z,1.9
2022-09-28T08:28:19.864Z,0.2
2022-09-28T08:30:50.681Z,0.0
2022-09-28T08:35:51.460Z,1.3
2022-09-28T08:38:22.061Z,1.3
2022-09-28T08:40:52.926Z,1.6
2022-09-28T08:43:33.577Z,1.6
2022-09-28T08:48:34.334Z,1.6
2022-09-28T08:51:04.919Z,2.5
2022-09-28T08:53:35.490Z,1.3
2022-09-28T08:56:16.085Z,2.7
2022-09-28T08:58:46.718Z,1.3
2022-09-28T09:01:27.529Z,2.5
2022-09-28T09:03:58.175Z,2.2
2022-09-28T09:06:28.966Z,1.1
2022-09-28T09:08:59.553Z,1.6
2022-09-28T09:11:40.159Z,0.2
2022-09-28T09:16:41.068Z,1.6
2022-09-28T09:19:11.655Z,1.6
2022-09-28T09:21:42.240Z,0.8
2022-09-28T09:24:12.841Z,1.9
2022-09-28T09:26:53.405Z,1.1
2022-09-28T09:29:23.987Z,0.8
2022-09-28T09:31:54.530Z,2.5
2022-09-28T09:34:25.339Z,2.2
2022-09-28T09:36:55.931Z,1.9
2022-09-28T09:39:26.538Z,3.3
2022-09-28T09:42:07.118Z,3.6
2022-09-28T09:44:37.931Z,3.0
2022-09-28T09:47:08.537Z,1.9
2022-09-28T09:49:39.141Z,2.2
2022-09-28T09:52:09.719Z,2.2
2022-09-28T09:57:20.455Z,2.5
2022-09-28T09:59:51.088Z,2.7
2022-09-28T10:02:22.311Z,1.9
2022-09-28T10:04:52.968Z,0.2
2022-09-28T10:07:23.523Z,3.0
2022-09-28T10:09:54.101Z,3.3
2022-09-28T10:12:34.703Z,2.5
2022-09-28T10:15:05.322Z,2.2
2022-09-28T10:17:35.914Z,2.7
2022-09-28T10:20:06.547Z,1.6
2022-09-28T10:22:37.154Z,1.6
2022-09-28T10:25:17.815Z,0.8
2022-09-28T10:27:48.394Z,0.8
2022-09-28T10:30:18.998Z,1.6
2022-09-28T10:32:49.603Z,1.1
2022-09-28T10:37:50.399Z,1.3
2022-09-28T10:40:31.062Z,1.3
2022-09-28T10:43:01.722Z,2.5
2022-09-28T10:45:32.330Z,1.9
2022-09-28T10:48:02.906Z,3.0
2022-09-28T10:50:33.517Z,2.5
2022-09-28T10:53:04.097Z,1.9
2022-09-28T10:58:14.837Z,3.0
2022-09-28T11:00:45.451Z,0.8
2022-09-28T11:03:16.163Z,3.0
2022-09-28T11:05:46.756Z,1.6
2022-09-28T11:08:17.329Z,3.3
2022-09-28T11:10:57.916Z,2.7
2022-09-28T11:13:28.875Z,2.2
2022-09-28T11:18:39.613Z,3.3
2022-09-28T11:21:12.047Z,2.7
2022-09-28T11:23:33.236Z,2.7
2022-09-28T11:26:17.590Z,1.1
2022-09-28T11:28:49.060Z,1.6
2022-09-28T11:31:19.771Z,2.2
2022-09-28T11:33:50.367Z,3.6
2022-09-28T11:36:20.969Z,3.3
2022-09-28T11:38:51.608Z,3.3
2022-09-28T11:41:32.223Z,3.0
2022-09-28T11:44:02.823Z,7.2
2022-09-28T11:46:33.662Z,2.5
2022-09-28T11:49:04.303Z,3.3
2022-09-28T11:51:34.900Z,3.0
2022-09-28T11:54:15.578Z,1.9
2022-09-28T11:59:16.465Z,3.6
2022-09-28T12:01:47.026Z,2.7
2022-09-28T12:06:47.759Z,3.8
2022-09-28T12:09:28.457Z,2.5
2022-09-28T12:17:30.161Z,2.2
2022-09-28T12:19:30.920Z,2.5
2022-09-28T12:22:01.515Z,3.3
2022-09-28T12:24:42.129Z,3.6
2022-09-28T12:34:53.119Z,3.8
2022-09-28T12:40:18.120Z,2.2
2022-09-28T12:42:28.732Z,4.1
2022-09-28T12:44:59.684Z,3.6
2022-09-28T12:47:30.500Z,9.1
2022-09-28T12:51:06.847Z,2.2
2022-09-28T12:52:47.521Z,3.3
2022-09-28T12:55:18.268Z,4.7
2022-09-28T12:57:48.834Z,2.5
2022-09-28T13:00:19.429Z,1.9
2022-09-28T13:02:50.154Z,2.7
2022-09-28T13:05:20.773Z,3.0
2022-09-28T13:08:01.368Z,3.6
2022-09-28T13:10:32.050Z,2.5
2022-09-28T13:13:02.760Z,4.4
2022-09-28T13:15:33.400Z,2.7
2022-09-28T13:20:34.175Z,11.6
2022-09-28T13:23:14.685Z,1.6
2022-09-28T13:25:45.296Z,2.5
2022-09-28T13:28:15.912Z,2.7
2022-09-28T13:30:46.875Z,2.5
2022-09-28T13:33:17.507Z,6.1
2022-09-28T13:38:28.267Z,13.8
2022-09-28T13:40:59.091Z,5.5
2022-09-28T13:43:30.003Z,4.7
2022-09-28T13:46:00.760Z,4.7
2022-09-28T13:48:31.420Z,5.5
2022-09-28T13:51:12.029Z,3.6
2022-09-28T13:53:42.649Z,2.7
2022-09-28T13:56:13.226Z,5.5
2022-09-28T14:01:14.121Z,3.8
2022-09-28T14:03:44.755Z,4.1
2022-09-28T14:06:26.418Z,4.4
2022-09-28T14:08:56.990Z,3.6
2022-09-28T14:11:27.576Z,4.4
2022-09-28T14:13:58.190Z,4.1
2022-09-28T14:16:28.992Z,4.4
2022-09-28T14:18:59.574Z,9.1
2022-09-28T14:21:40.178Z,1.9
2022-09-28T14:24:10.779Z,5.0
2022-09-28T14:26:41.380Z,3.0
2022-09-28T14:29:11.996Z,2.2
2022-09-28T14:31:42.633Z,2.7
2022-09-28T14:36:53.385Z,1.9
2022-09-28T14:49:24.558Z,2.7
2022-09-28T15:14:56.488Z,1.6
2022-09-28T15:22:37.356Z,0.8
2022-09-28T15:32:48.357Z,2.5
2022-09-28T15:48:09.671Z,1.6
2022-09-28T15:55:40.561Z,2.7
2022-09-28T15:58:11.175Z,2.2
2022-09-28T16:03:22.147Z,7.7
2022-09-28T16:28:34.642Z,1.3
2022-09-28T16:31:15.559Z,1.9
2022-09-28T16:33:46.220Z,0.8
2022-09-28T16:38:46.939Z,0.8
2022-09-28T16:43:47.751Z,0.0
2022-09-28T16:46:28.580Z,0.0
2022-09-28T16:48:59.200Z,0.0
2022-09-28T16:51:39.792Z,0.0
2022-09-28T16:54:10.365Z,0.0
2022-09-28T16:56:40.973Z,0.0
2022-09-28T16:59:13.746Z,0.0
2022-09-28T17:01:46.685Z,0.0
2022-09-28T17:04:17.321Z,0.0
2022-09-28T17:06:47.909Z,0.0
2022-09-28T17:09:18.636Z,0.0
2022-09-28T17:14:19.542Z,0.0
2022-09-28T17:19:30.782Z,0.0
2022-09-28T17:24:32.088Z,0.0
2022-09-28T17:27:02.687Z,0.2
2022-09-28T17:32:13.449Z,0.0
2022-09-28T17:37:14.162Z,0.0
2022-09-28T17:45:05.093Z,0.0
2022-09-28T17:57:36.273Z,0.0
2022-09-28T18:00:16.886Z,0.0
2022-09-28T18:07:47.955Z,0.0
2022-09-28T18:12:58.752Z,0.0
2022-09-28T18:15:29.357Z,0.0
2022-09-28T18:23:00.275Z,0.0
2022-09-28T18:25:31.037Z,0.0
2022-09-28T18:28:11.618Z,0.0
2022-09-28T18:33:12.363Z,0.0
2022-09-28T19:29:16.018Z,0.0
2022-09-28T19:31:46.600Z,0.0
2022-09-28T19:36:47.321Z,0.0
2022-09-28T19:52:23.079Z,0.0
2022-09-28T19:54:46.718Z,0.2
2022-09-28T21:49:03.653Z,0.0
2022-09-28T21:51:34.212Z,0.0
2022-09-28T21:54:04.806Z,0.0
2022-09-28T21:56:35.397Z,0.0
2022-09-28T22:04:16.354Z,0.0
2022-09-28T22:11:47.271Z,0.0
2022-09-28T22:14:17.885Z,0.0
2022-09-28T22:16:48.590Z,0.0
2022-09-28T22:19:29.317Z,0.0
2022-09-28T22:21:59.901Z,0.0
2022-09-28T22:24:30.613Z,0.0
2022-09-28T22:27:01.196Z,0.0
2022-09-28T22:34:42.076Z,0.0
2022-09-28T22:37:12.666Z,0.0
2022-09-28T22:39:47.693Z,0.0
2022-09-28T22:42:18.280Z,0.0
2022-09-28T22:44:48.884Z,0.0
2022-09-28T22:52:29.780Z,0.0
2022-09-28T22:57:30.553Z,0.0
2022-09-28T23:10:11.720Z,0.0
2022-09-28T23:15:22.506Z,0.0
2022-09-28T23:25:33.549Z,0.0
2022-09-28T23:30:44.292Z,0.0
2022-09-28T23:33:14.885Z,0.0
2022-09-28T23:35:45.485Z,0.0
2022-09-28T23:40:46.461Z,0.0
2022-09-28T23:48:27.445Z,0.0
